sensor_id;sensor_type;location;lat;lon;timestamp;temperature;humidity
55721;DHT22;41626;53.098;6.168;2022-12-18T00:01:02;-3.10;99.90
55721;DHT22;41626;53.098;6.168;2022-12-18T00:03:35;-2.90;99.90
55721;DHT22;41626;53.098;6.168;2022-12-18T00:06:01;-3.00;99.90
55721;DHT22;41626;53.098;6.168;2022-12-18T00:08:28;-2.90;99.90
55721;DHT22;41626;53.098;6.168;2022-12-18T00:10:53;-2.90;99.90
55721;DHT22;41626;53.098;6.168;2022-12-18T00:13:19;-2.90;99.90
55721;DHT22;41626;53.098;6.168;2022-12-18T00:15:45;-2.80;99.90
55721;DHT22;41626;53.098;6.168;2022-12-18T00:18:10;-3.00;99.90
55721;DHT22;41626;53.098;6.168;2022-12-18T00:20:38;-2.90;99.90
55721;DHT22;41626;53.098;6.168;2022-12-18T00:23:04;-2.90;99.90
55721;DHT22;41626;53.098;6.168;2022-12-18T00:25:35;-2.90;99.90
55721;DHT22;41626;53.098;6.168;2022-12-18T00:28:02;-2.90;99.90
55721;DHT22;41626;53.098;6.168;2022-12-18T00:30:28;-3.00;99.90
55721;DHT22;41626;53.098;6.168;2022-12-18T00:32:54;-2.90;99.90
55721;DHT22;41626;53.098;6.168;2022-12-18T00:35:20;-2.90;99.90
55721;DHT22;41626;53.098;6.168;2022-12-18T00:37:46;-2.80;99.90
55721;DHT22;41626;53.098;6.168;2022-12-18T00:40:12;-3.10;99.90
55721;DHT22;41626;53.098;6.168;2022-12-18T00:42:37;-2.90;99.90
55721;DHT22;41626;53.098;6.168;2022-12-18T00:45:27;-3.00;99.90
55721;DHT22;41626;53.098;6.168;2022-12-18T00:47:53;-3.10;99.90
55721;DHT22;41626;53.098;6.168;2022-12-18T00:50:20;-3.10;99.90
55721;DHT22;41626;53.098;6.168;2022-12-18T00:52:46;-3.10;99.90
55721;DHT22;41626;53.098;6.168;2022-12-18T00:55:12;-3.00;99.90
55721;DHT22;41626;53.098;6.168;2022-12-18T00:57:38;-2.90;99.90
55721;DHT22;41626;53.098;6.168;2022-12-18T01:00:07;-3.10;99.90
55721;DHT22;41626;53.098;6.168;2022-12-18T01:02:33;-3.20;99.90
55721;DHT22;41626;53.098;6.168;2022-12-18T01:04:58;-3.20;99.90
55721;DHT22;41626;53.098;6.168;2022-12-18T01:07:24;-3.10;99.90
55721;DHT22;41626;53.098;6.168;2022-12-18T01:09:50;-3.10;99.90
55721;DHT22;41626;53.098;6.168;2022-12-18T01:12:15;-3.00;99.90
55721;DHT22;41626;53.098;6.168;2022-12-18T01:14:41;-3.30;99.90
55721;DHT22;41626;53.098;6.168;2022-12-18T01:17:07;-3.20;99.90
55721;DHT22;41626;53.098;6.168;2022-12-18T01:19:32;-3.40;99.90
55721;DHT22;41626;53.098;6.168;2022-12-18T01:21:59;-3.30;99.90
55721;DHT22;41626;53.098;6.168;2022-12-18T01:24:24;-3.40;99.90
55721;DHT22;41626;53.098;6.168;2022-12-18T01:26:50;-3.40;99.90
55721;DHT22;41626;53.098;6.168;2022-12-18T01:29:16;-3.50;99.90
55721;DHT22;41626;53.098;6.168;2022-12-18T01:31:41;-3.50;99.90
55721;DHT22;41626;53.098;6.168;2022-12-18T01:34:08;-3.30;99.90
55721;DHT22;41626;53.098;6.168;2022-12-18T01:36:36;-3.40;99.90
55721;DHT22;41626;53.098;6.168;2022-12-18T01:39:04;-3.40;99.90
55721;DHT22;41626;53.098;6.168;2022-12-18T01:41:32;-3.20;99.90
55721;DHT22;41626;53.098;6.168;2022-12-18T01:44:56;-3.30;99.90
55721;DHT22;41626;53.098;6.168;2022-12-18T01:50:17;-3.50;99.90
55721;DHT22;41626;53.098;6.168;2022-12-18T01:53:27;-3.60;99.90
55721;DHT22;41626;53.098;6.168;2022-12-18T01:55:43;-3.70;99.90
55721;DHT22;41626;53.098;6.168;2022-12-18T01:58:10;-3.50;99.90
55721;DHT22;41626;53.098;6.168;2022-12-18T02:00:36;-3.70;99.90
55721;DHT22;41626;53.098;6.168;2022-12-18T02:03:02;-3.60;99.90
55721;DHT22;41626;53.098;6.168;2022-12-18T02:05:50;-3.70;99.90
55721;DHT22;41626;53.098;6.168;2022-12-18T02:08:39;-3.80;99.90
55721;DHT22;41626;53.098;6.168;2022-12-18T02:13:56;-3.70;99.90
55721;DHT22;41626;53.098;6.168;2022-12-18T02:21:46;-4.00;99.90
55721;DHT22;41626;53.098;6.168;2022-12-18T02:24:17;-4.00;99.90
55721;DHT22;41626;53.098;6.168;2022-12-18T02:26:53;-4.00;99.90
55721;DHT22;41626;53.098;6.168;2022-12-18T02:29:33;-4.00;99.90
55721;DHT22;41626;53.098;6.168;2022-12-18T02:32:00;-4.00;99.90
55721;DHT22;41626;53.098;6.168;2022-12-18T02:34:31;-4.00;99.90
55721;DHT22;41626;53.098;6.168;2022-12-18T02:37:00;-3.90;99.90
55721;DHT22;41626;53.098;6.168;2022-12-18T02:39:29;-3.40;99.90
55721;DHT22;41626;53.098;6.168;2022-12-18T02:41:57;-4.00;99.90
55721;DHT22;41626;53.098;6.168;2022-12-18T02:44:23;-3.80;99.90
55721;DHT22;41626;53.098;6.168;2022-12-18T02:46:50;-4.00;99.90
55721;DHT22;41626;53.098;6.168;2022-12-18T03:00:18;-4.10;99.90
55721;DHT22;41626;53.098;6.168;2022-12-18T03:03:14;-4.10;99.90
55721;DHT22;41626;53.098;6.168;2022-12-18T03:05:54;-3.90;99.90
55721;DHT22;41626;53.098;6.168;2022-12-18T03:08:25;-4.10;99.90
55721;DHT22;41626;53.098;6.168;2022-12-18T03:11:04;-4.10;99.90
55721;DHT22;41626;53.098;6.168;2022-12-18T03:13:43;-4.00;99.90
55721;DHT22;41626;53.098;6.168;2022-12-18T03:16:13;-4.00;99.90
55721;DHT22;41626;53.098;6.168;2022-12-18T03:18:48;-4.20;99.90
55721;DHT22;41626;53.098;6.168;2022-12-18T03:21:18;-4.00;99.90
55721;DHT22;41626;53.098;6.168;2022-12-18T03:23:48;-4.30;99.90
55721;DHT22;41626;53.098;6.168;2022-12-18T03:26:17;-4.40;99.90
55721;DHT22;41626;53.098;6.168;2022-12-18T03:28:49;-4.40;99.90
55721;DHT22;41626;53.098;6.168;2022-12-18T03:31:17;-4.40;99.90
55721;DHT22;41626;53.098;6.168;2022-12-18T03:33:53;-4.30;99.90
55721;DHT22;41626;53.098;6.168;2022-12-18T03:36:19;-4.40;99.90
55721;DHT22;41626;53.098;6.168;2022-12-18T03:38:45;-4.50;99.90
55721;DHT22;41626;53.098;6.168;2022-12-18T03:41:37;-4.50;99.90
55721;DHT22;41626;53.098;6.168;2022-12-18T03:54:52;-4.40;99.90
55721;DHT22;41626;53.098;6.168;2022-12-18T03:57:26;-4.60;99.90
55721;DHT22;41626;53.098;6.168;2022-12-18T03:59:56;-4.60;99.90
55721;DHT22;41626;53.098;6.168;2022-12-18T04:02:23;-4.70;99.90
55721;DHT22;41626;53.098;6.168;2022-12-18T04:04:55;-4.70;99.90
55721;DHT22;41626;53.098;6.168;2022-12-18T04:07:24;-4.70;99.90
55721;DHT22;41626;53.098;6.168;2022-12-18T04:09:51;-4.80;99.90
55721;DHT22;41626;53.098;6.168;2022-12-18T04:12:19;-4.90;99.90
55721;DHT22;41626;53.098;6.168;2022-12-18T04:14:44;-4.80;99.90
55721;DHT22;41626;53.098;6.168;2022-12-18T04:17:10;-4.90;99.90
55721;DHT22;41626;53.098;6.168;2022-12-18T04:19:35;-4.80;99.90
55721;DHT22;41626;53.098;6.168;2022-12-18T04:22:01;-5.00;99.90
55721;DHT22;41626;53.098;6.168;2022-12-18T04:24:27;-4.90;99.90
55721;DHT22;41626;53.098;6.168;2022-12-18T04:26:52;-5.10;99.90
55721;DHT22;41626;53.098;6.168;2022-12-18T04:29:18;-4.90;99.90
55721;DHT22;41626;53.098;6.168;2022-12-18T04:31:43;-5.00;99.90
55721;DHT22;41626;53.098;6.168;2022-12-18T04:34:09;-4.80;99.90
55721;DHT22;41626;53.098;6.168;2022-12-18T04:36:35;-4.90;99.90
55721;DHT22;41626;53.098;6.168;2022-12-18T04:39:00;-5.10;99.90
55721;DHT22;41626;53.098;6.168;2022-12-18T04:41:26;-5.10;99.90
55721;DHT22;41626;53.098;6.168;2022-12-18T04:43:52;-5.20;99.90
55721;DHT22;41626;53.098;6.168;2022-12-18T04:46:17;-5.20;99.90
55721;DHT22;41626;53.098;6.168;2022-12-18T04:48:45;-5.20;99.90
55721;DHT22;41626;53.098;6.168;2022-12-18T04:51:11;-5.10;99.90
55721;DHT22;41626;53.098;6.168;2022-12-18T04:53:37;-5.20;99.90
55721;DHT22;41626;53.098;6.168;2022-12-18T04:56:11;-5.40;99.90
55721;DHT22;41626;53.098;6.168;2022-12-18T04:58:38;-5.30;99.90
55721;DHT22;41626;53.098;6.168;2022-12-18T05:01:05;-5.30;99.90
55721;DHT22;41626;53.098;6.168;2022-12-18T05:03:31;-5.40;99.90
55721;DHT22;41626;53.098;6.168;2022-12-18T05:05:57;-5.30;99.90
55721;DHT22;41626;53.098;6.168;2022-12-18T05:08:23;-5.40;99.90
55721;DHT22;41626;53.098;6.168;2022-12-18T05:10:48;-5.40;99.90
55721;DHT22;41626;53.098;6.168;2022-12-18T05:13:14;-5.40;99.90
55721;DHT22;41626;53.098;6.168;2022-12-18T05:15:40;-5.40;99.90
55721;DHT22;41626;53.098;6.168;2022-12-18T05:18:07;-5.40;99.90
55721;DHT22;41626;53.098;6.168;2022-12-18T05:20:33;-5.50;99.90
55721;DHT22;41626;53.098;6.168;2022-12-18T05:22:59;-5.50;99.90
55721;DHT22;41626;53.098;6.168;2022-12-18T05:25:24;-5.50;99.90
55721;DHT22;41626;53.098;6.168;2022-12-18T05:27:50;-5.50;99.90
55721;DHT22;41626;53.098;6.168;2022-12-18T05:30:16;-5.60;99.90
55721;DHT22;41626;53.098;6.168;2022-12-18T05:32:42;-5.60;99.90
55721;DHT22;41626;53.098;6.168;2022-12-18T05:35:09;-5.60;99.90
55721;DHT22;41626;53.098;6.168;2022-12-18T05:37:35;-5.50;99.90
55721;DHT22;41626;53.098;6.168;2022-12-18T05:40:02;-5.00;99.90
55721;DHT22;41626;53.098;6.168;2022-12-18T05:42:28;-5.50;99.90
55721;DHT22;41626;53.098;6.168;2022-12-18T05:44:54;-5.50;99.90
55721;DHT22;41626;53.098;6.168;2022-12-18T05:47:19;-5.40;99.90
55721;DHT22;41626;53.098;6.168;2022-12-18T05:49:45;-5.50;99.90
55721;DHT22;41626;53.098;6.168;2022-12-18T05:52:11;-5.20;99.90
55721;DHT22;41626;53.098;6.168;2022-12-18T05:54:36;-5.50;99.90
55721;DHT22;41626;53.098;6.168;2022-12-18T05:57:02;-5.40;99.90
55721;DHT22;41626;53.098;6.168;2022-12-18T05:59:28;-5.50;99.90
55721;DHT22;41626;53.098;6.168;2022-12-18T06:01:53;-5.50;99.90
55721;DHT22;41626;53.098;6.168;2022-12-18T06:04:19;-5.10;99.90
55721;DHT22;41626;53.098;6.168;2022-12-18T06:06:45;-5.50;99.90
55721;DHT22;41626;53.098;6.168;2022-12-18T06:09:10;-5.50;99.90
55721;DHT22;41626;53.098;6.168;2022-12-18T06:11:37;-5.50;99.90
55721;DHT22;41626;53.098;6.168;2022-12-18T06:14:04;-5.50;99.90
55721;DHT22;41626;53.098;6.168;2022-12-18T06:16:31;-5.70;99.90
55721;DHT22;41626;53.098;6.168;2022-12-18T06:19:02;-5.70;99.90
55721;DHT22;41626;53.098;6.168;2022-12-18T06:21:29;-5.70;99.90
55721;DHT22;41626;53.098;6.168;2022-12-18T06:23:55;-5.80;99.90
55721;DHT22;41626;53.098;6.168;2022-12-18T06:26:21;-5.80;99.90
55721;DHT22;41626;53.098;6.168;2022-12-18T06:28:46;-5.80;99.90
55721;DHT22;41626;53.098;6.168;2022-12-18T06:31:12;-5.80;99.90
55721;DHT22;41626;53.098;6.168;2022-12-18T06:33:38;-5.80;99.90
55721;DHT22;41626;53.098;6.168;2022-12-18T06:36:07;-5.80;99.90
55721;DHT22;41626;53.098;6.168;2022-12-18T06:38:34;-5.90;99.90
55721;DHT22;41626;53.098;6.168;2022-12-18T06:41:00;-5.80;99.90
55721;DHT22;41626;53.098;6.168;2022-12-18T06:43:25;-5.50;99.90
55721;DHT22;41626;53.098;6.168;2022-12-18T06:45:51;-5.80;99.90
55721;DHT22;41626;53.098;6.168;2022-12-18T06:48:22;-5.70;99.90
55721;DHT22;41626;53.098;6.168;2022-12-18T06:50:48;-5.70;99.90
55721;DHT22;41626;53.098;6.168;2022-12-18T06:53:14;-5.80;99.90
55721;DHT22;41626;53.098;6.168;2022-12-18T06:55:40;-5.70;99.90
55721;DHT22;41626;53.098;6.168;2022-12-18T06:58:06;-5.70;99.90
55721;DHT22;41626;53.098;6.168;2022-12-18T07:00:32;-5.70;99.90
55721;DHT22;41626;53.098;6.168;2022-12-18T07:02:57;-5.80;99.90
55721;DHT22;41626;53.098;6.168;2022-12-18T07:05:23;-5.70;99.90
55721;DHT22;41626;53.098;6.168;2022-12-18T07:07:49;-5.70;99.90
55721;DHT22;41626;53.098;6.168;2022-12-18T07:10:14;-5.70;99.90
55721;DHT22;41626;53.098;6.168;2022-12-18T07:12:40;-5.70;99.90
55721;DHT22;41626;53.098;6.168;2022-12-18T07:15:07;-5.70;99.90
55721;DHT22;41626;53.098;6.168;2022-12-18T07:17:32;-5.80;99.90
55721;DHT22;41626;53.098;6.168;2022-12-18T07:19:58;-5.70;99.90
55721;DHT22;41626;53.098;6.168;2022-12-18T07:22:25;-5.70;99.90
55721;DHT22;41626;53.098;6.168;2022-12-18T07:24:51;-5.70;99.90
55721;DHT22;41626;53.098;6.168;2022-12-18T07:27:17;-5.60;99.90
55721;DHT22;41626;53.098;6.168;2022-12-18T07:29:42;-5.60;99.90
55721;DHT22;41626;53.098;6.168;2022-12-18T07:32:08;-5.60;99.90
55721;DHT22;41626;53.098;6.168;2022-12-18T07:34:34;-5.50;99.90
55721;DHT22;41626;53.098;6.168;2022-12-18T07:37:00;-5.50;99.90
55721;DHT22;41626;53.098;6.168;2022-12-18T07:39:26;-5.40;99.90
55721;DHT22;41626;53.098;6.168;2022-12-18T07:41:52;-5.40;99.90
55721;DHT22;41626;53.098;6.168;2022-12-18T07:44:36;-5.40;99.90
55721;DHT22;41626;53.098;6.168;2022-12-18T07:47:02;-5.30;99.90
55721;DHT22;41626;53.098;6.168;2022-12-18T07:49:28;-5.30;99.90
55721;DHT22;41626;53.098;6.168;2022-12-18T07:51:57;-5.30;99.90
55721;DHT22;41626;53.098;6.168;2022-12-18T07:54:23;-5.20;99.90
55721;DHT22;41626;53.098;6.168;2022-12-18T07:56:50;-5.20;99.90
55721;DHT22;41626;53.098;6.168;2022-12-18T07:59:15;-5.10;99.90
55721;DHT22;41626;53.098;6.168;2022-12-18T08:01:41;-5.10;99.90
55721;DHT22;41626;53.098;6.168;2022-12-18T08:04:07;-5.10;99.90
55721;DHT22;41626;53.098;6.168;2022-12-18T08:06:32;-5.10;99.90
55721;DHT22;41626;53.098;6.168;2022-12-18T08:08:58;-5.00;99.90
55721;DHT22;41626;53.098;6.168;2022-12-18T08:11:25;-5.10;99.90
55721;DHT22;41626;53.098;6.168;2022-12-18T08:13:52;-5.00;99.90
55721;DHT22;41626;53.098;6.168;2022-12-18T08:16:18;-5.00;99.90
55721;DHT22;41626;53.098;6.168;2022-12-18T08:18:44;-4.90;99.90
55721;DHT22;41626;53.098;6.168;2022-12-18T08:21:18;-5.00;99.90
55721;DHT22;41626;53.098;6.168;2022-12-18T08:23:44;-4.90;99.90
55721;DHT22;41626;53.098;6.168;2022-12-18T08:26:11;-4.80;99.90
55721;DHT22;41626;53.098;6.168;2022-12-18T08:28:36;-4.70;99.90
55721;DHT22;41626;53.098;6.168;2022-12-18T08:31:02;-4.70;99.90
55721;DHT22;41626;53.098;6.168;2022-12-18T08:33:29;-4.60;99.90
55721;DHT22;41626;53.098;6.168;2022-12-18T08:35:55;-4.50;99.90
55721;DHT22;41626;53.098;6.168;2022-12-18T08:38:21;-4.50;99.90
55721;DHT22;41626;53.098;6.168;2022-12-18T08:40:48;-3.50;99.90
55721;DHT22;41626;53.098;6.168;2022-12-18T08:43:13;-4.40;99.90
55721;DHT22;41626;53.098;6.168;2022-12-18T08:45:57;-4.30;99.90
55721;DHT22;41626;53.098;6.168;2022-12-18T08:48:23;-4.30;99.90
55721;DHT22;41626;53.098;6.168;2022-12-18T08:51:07;-4.20;99.90
55721;DHT22;41626;53.098;6.168;2022-12-18T08:53:35;-4.20;99.90
55721;DHT22;41626;53.098;6.168;2022-12-18T08:56:01;-4.10;99.90
55721;DHT22;41626;53.098;6.168;2022-12-18T08:58:26;-4.10;99.90
55721;DHT22;41626;53.098;6.168;2022-12-18T09:00:52;-4.00;99.90
55721;DHT22;41626;53.098;6.168;2022-12-18T09:03:19;-3.90;99.90
55721;DHT22;41626;53.098;6.168;2022-12-18T09:05:48;-4.00;99.90
55721;DHT22;41626;53.098;6.168;2022-12-18T09:08:14;-3.90;99.90
55721;DHT22;41626;53.098;6.168;2022-12-18T09:10:44;-3.90;99.90
55721;DHT22;41626;53.098;6.168;2022-12-18T09:13:11;-3.70;99.90
55721;DHT22;41626;53.098;6.168;2022-12-18T09:15:50;-3.80;99.90
55721;DHT22;41626;53.098;6.168;2022-12-18T09:18:18;-3.80;99.90
55721;DHT22;41626;53.098;6.168;2022-12-18T09:20:44;-3.60;99.90
55721;DHT22;41626;53.098;6.168;2022-12-18T09:23:11;-3.60;99.90
55721;DHT22;41626;53.098;6.168;2022-12-18T09:25:37;-3.50;99.90
55721;DHT22;41626;53.098;6.168;2022-12-18T09:28:05;-3.40;99.90
55721;DHT22;41626;53.098;6.168;2022-12-18T09:30:32;-3.20;99.90
55721;DHT22;41626;53.098;6.168;2022-12-18T09:33:00;-2.20;99.90
55721;DHT22;41626;53.098;6.168;2022-12-18T09:35:25;-3.10;99.90
55721;DHT22;41626;53.098;6.168;2022-12-18T09:37:53;-3.00;99.90
55721;DHT22;41626;53.098;6.168;2022-12-18T09:40:21;-3.00;99.90
55721;DHT22;41626;53.098;6.168;2022-12-18T09:42:58;-2.50;99.90
55721;DHT22;41626;53.098;6.168;2022-12-18T09:45:25;-2.90;99.90
55721;DHT22;41626;53.098;6.168;2022-12-18T09:47:52;-2.80;99.90
55721;DHT22;41626;53.098;6.168;2022-12-18T09:50:34;-2.80;99.90
55721;DHT22;41626;53.098;6.168;2022-12-18T09:53:06;-2.90;99.90
55721;DHT22;41626;53.098;6.168;2022-12-18T09:55:44;-2.80;99.90
55721;DHT22;41626;53.098;6.168;2022-12-18T10:01:17;-2.90;99.90
55721;DHT22;41626;53.098;6.168;2022-12-18T10:03:44;-2.90;99.90
55721;DHT22;41626;53.098;6.168;2022-12-18T10:27:40;-3.20;99.90
55721;DHT22;41626;53.098;6.168;2022-12-18T10:30:14;-3.10;99.90
55721;DHT22;41626;53.098;6.168;2022-12-18T10:32:40;-3.20;99.90
55721;DHT22;41626;53.098;6.168;2022-12-18T10:35:19;-3.10;99.90
55721;DHT22;41626;53.098;6.168;2022-12-18T10:43:30;-2.90;99.90
55721;DHT22;41626;53.098;6.168;2022-12-18T10:53:55;-2.70;99.90
55721;DHT22;41626;53.098;6.168;2022-12-18T10:56:21;-2.50;99.90
55721;DHT22;41626;53.098;6.168;2022-12-18T10:58:58;-2.50;99.90
55721;DHT22;41626;53.098;6.168;2022-12-18T11:01:24;-2.50;99.90
55721;DHT22;41626;53.098;6.168;2022-12-18T11:06:18;-2.40;99.90
55721;DHT22;41626;53.098;6.168;2022-12-18T11:09:01;-2.30;99.90
55721;DHT22;41626;53.098;6.168;2022-12-18T11:11:27;-2.20;99.90
55721;DHT22;41626;53.098;6.168;2022-12-18T11:14:05;-2.20;99.90
55721;DHT22;41626;53.098;6.168;2022-12-18T11:16:42;-2.10;99.90
55721;DHT22;41626;53.098;6.168;2022-12-18T11:19:24;-2.00;99.90
55721;DHT22;41626;53.098;6.168;2022-12-18T11:21:50;-2.00;99.90
55721;DHT22;41626;53.098;6.168;2022-12-18T11:24:36;-2.00;99.90
55721;DHT22;41626;53.098;6.168;2022-12-18T11:27:06;-1.90;99.90
55721;DHT22;41626;53.098;6.168;2022-12-18T11:29:41;-1.90;99.90
55721;DHT22;41626;53.098;6.168;2022-12-18T11:32:38;-1.90;99.90
55721;DHT22;41626;53.098;6.168;2022-12-18T11:35:14;-1.90;99.90
55721;DHT22;41626;53.098;6.168;2022-12-18T11:37:49;-1.80;99.90
55721;DHT22;41626;53.098;6.168;2022-12-18T11:40:22;-1.70;99.90
55721;DHT22;41626;53.098;6.168;2022-12-18T11:43:09;-1.70;99.90
55721;DHT22;41626;53.098;6.168;2022-12-18T11:45:42;-1.70;99.90
55721;DHT22;41626;53.098;6.168;2022-12-18T11:48:22;-1.60;99.90
55721;DHT22;41626;53.098;6.168;2022-12-18T11:50:52;-1.70;99.90
55721;DHT22;41626;53.098;6.168;2022-12-18T11:53:18;-1.70;99.90
55721;DHT22;41626;53.098;6.168;2022-12-18T12:04:41;-1.60;99.90
55721;DHT22;41626;53.098;6.168;2022-12-18T12:15:16;-1.50;99.90
55721;DHT22;41626;53.098;6.168;2022-12-18T12:17:45;-1.50;99.90
55721;DHT22;41626;53.098;6.168;2022-12-18T12:23:06;-1.40;99.90
55721;DHT22;41626;53.098;6.168;2022-12-18T12:26:19;-1.40;99.90
55721;DHT22;41626;53.098;6.168;2022-12-18T12:29:13;-1.40;99.90
55721;DHT22;41626;53.098;6.168;2022-12-18T12:34:26;-1.30;99.90
55721;DHT22;41626;53.098;6.168;2022-12-18T12:37:19;-1.40;99.90
55721;DHT22;41626;53.098;6.168;2022-12-18T12:39:47;-1.30;99.90
55721;DHT22;41626;53.098;6.168;2022-12-18T12:42:38;-1.30;99.90
55721;DHT22;41626;53.098;6.168;2022-12-18T12:45:33;-1.20;99.90
55721;DHT22;41626;53.098;6.168;2022-12-18T12:48:02;-1.20;99.90
55721;DHT22;41626;53.098;6.168;2022-12-18T12:50:33;-1.10;99.90
55721;DHT22;41626;53.098;6.168;2022-12-18T12:53:01;-1.10;99.90
55721;DHT22;41626;53.098;6.168;2022-12-18T12:55:32;-1.10;99.90
55721;DHT22;41626;53.098;6.168;2022-12-18T13:00:53;-1.00;99.90
55721;DHT22;41626;53.098;6.168;2022-12-18T13:06:02;-1.10;99.90
55721;DHT22;41626;53.098;6.168;2022-12-18T13:08:31;-1.00;99.90
55721;DHT22;41626;53.098;6.168;2022-12-18T13:11:45;-0.90;99.90
55721;DHT22;41626;53.098;6.168;2022-12-18T13:14:35;-1.00;99.90
55721;DHT22;41626;53.098;6.168;2022-12-18T13:19:52;-0.90;99.90
55721;DHT22;41626;53.098;6.168;2022-12-18T13:25:03;-0.80;99.90
55721;DHT22;41626;53.098;6.168;2022-12-18T13:35:41;-0.80;99.90
55721;DHT22;41626;53.098;6.168;2022-12-18T13:38:32;-0.80;99.90
55721;DHT22;41626;53.098;6.168;2022-12-18T13:41:03;-0.80;99.90
55721;DHT22;41626;53.098;6.168;2022-12-18T13:43:30;-0.80;99.90
55721;DHT22;41626;53.098;6.168;2022-12-18T13:46:19;-0.70;99.90
55721;DHT22;41626;53.098;6.168;2022-12-18T13:51:23;-0.70;99.90
55721;DHT22;41626;53.098;6.168;2022-12-18T13:54:18;-0.70;99.90
55721;DHT22;41626;53.098;6.168;2022-12-18T13:56:46;-0.80;99.90
55721;DHT22;41626;53.098;6.168;2022-12-18T13:59:16;-0.80;99.90
55721;DHT22;41626;53.098;6.168;2022-12-18T14:02:15;-0.80;99.90
55721;DHT22;41626;53.098;6.168;2022-12-18T14:04:44;-0.80;99.90
55721;DHT22;41626;53.098;6.168;2022-12-18T14:07:22;-0.80;99.90
55721;DHT22;41626;53.098;6.168;2022-12-18T14:10:01;-0.90;99.90
55721;DHT22;41626;53.098;6.168;2022-12-18T14:12:31;-0.90;99.90
55721;DHT22;41626;53.098;6.168;2022-12-18T14:15:34;-0.90;99.90
55721;DHT22;41626;53.098;6.168;2022-12-18T14:18:22;-0.90;99.90
55721;DHT22;41626;53.098;6.168;2022-12-18T14:20:54;-0.90;99.90
55721;DHT22;41626;53.098;6.168;2022-12-18T14:23:39;-0.90;99.90
55721;DHT22;41626;53.098;6.168;2022-12-18T14:26:27;-0.80;99.90
55721;DHT22;41626;53.098;6.168;2022-12-18T14:28:58;-0.90;99.90
55721;DHT22;41626;53.098;6.168;2022-12-18T14:31:28;-0.90;99.90
55721;DHT22;41626;53.098;6.168;2022-12-18T14:33:55;-0.80;99.90
55721;DHT22;41626;53.098;6.168;2022-12-18T14:36:26;-0.90;99.90
55721;DHT22;41626;53.098;6.168;2022-12-18T14:38:57;-0.90;99.90
55721;DHT22;41626;53.098;6.168;2022-12-18T14:41:24;-1.00;99.90
55721;DHT22;41626;53.098;6.168;2022-12-18T14:43:52;-1.00;99.90
55721;DHT22;41626;53.098;6.168;2022-12-18T14:46:35;-1.00;99.90
55721;DHT22;41626;53.098;6.168;2022-12-18T14:51:30;-1.10;99.90
55721;DHT22;41626;53.098;6.168;2022-12-18T14:54:05;-1.10;99.90
55721;DHT22;41626;53.098;6.168;2022-12-18T14:56:41;-1.10;99.90
55721;DHT22;41626;53.098;6.168;2022-12-18T14:59:16;-1.10;99.90
55721;DHT22;41626;53.098;6.168;2022-12-18T15:04:41;-1.10;99.90
55721;DHT22;41626;53.098;6.168;2022-12-18T15:07:18;-1.20;99.90
55721;DHT22;41626;53.098;6.168;2022-12-18T15:10:16;-1.10;99.90
55721;DHT22;41626;53.098;6.168;2022-12-18T15:20:30;-1.20;99.90
55721;DHT22;41626;53.098;6.168;2022-12-18T15:22:57;-0.90;99.90
55721;DHT22;41626;53.098;6.168;2022-12-18T15:25:35;-1.10;99.90
55721;DHT22;41626;53.098;6.168;2022-12-18T15:28:03;-1.10;99.90
55721;DHT22;41626;53.098;6.168;2022-12-18T15:30:29;-1.20;99.90
55721;DHT22;41626;53.098;6.168;2022-12-18T15:33:23;-1.10;99.90
55721;DHT22;41626;53.098;6.168;2022-12-18T15:35:56;-1.10;99.90
55721;DHT22;41626;53.098;6.168;2022-12-18T15:38:22;-1.20;99.90
55721;DHT22;41626;53.098;6.168;2022-12-18T15:40:48;-1.10;99.90
55721;DHT22;41626;53.098;6.168;2022-12-18T15:43:14;-1.20;99.90
55721;DHT22;41626;53.098;6.168;2022-12-18T15:45:58;-1.20;99.90
55721;DHT22;41626;53.098;6.168;2022-12-18T15:48:23;-0.90;99.90
55721;DHT22;41626;53.098;6.168;2022-12-18T15:50:54;-1.10;99.90
55721;DHT22;41626;53.098;6.168;2022-12-18T15:53:27;-1.10;99.90
55721;DHT22;41626;53.098;6.168;2022-12-18T15:55:53;-1.20;99.90
55721;DHT22;41626;53.098;6.168;2022-12-18T15:58:37;-1.10;99.90
55721;DHT22;41626;53.098;6.168;2022-12-18T16:01:03;-1.20;99.90
55721;DHT22;41626;53.098;6.168;2022-12-18T16:03:29;-1.30;99.90
55721;DHT22;41626;53.098;6.168;2022-12-18T16:05:54;-1.20;99.90
55721;DHT22;41626;53.098;6.168;2022-12-18T16:08:20;-1.20;99.90
55721;DHT22;41626;53.098;6.168;2022-12-18T16:10:46;-1.20;99.90
55721;DHT22;41626;53.098;6.168;2022-12-18T16:13:12;-1.30;99.90
55721;DHT22;41626;53.098;6.168;2022-12-18T16:15:40;-1.20;99.90
55721;DHT22;41626;53.098;6.168;2022-12-18T16:18:07;-1.20;99.90
55721;DHT22;41626;53.098;6.168;2022-12-18T16:20:33;-1.20;99.90
55721;DHT22;41626;53.098;6.168;2022-12-18T16:22:58;-1.20;99.90
55721;DHT22;41626;53.098;6.168;2022-12-18T16:25:26;-1.00;99.90
55721;DHT22;41626;53.098;6.168;2022-12-18T16:27:53;-1.20;99.90
55721;DHT22;41626;53.098;6.168;2022-12-18T16:30:25;-1.10;99.90
55721;DHT22;41626;53.098;6.168;2022-12-18T16:32:53;-1.20;99.90
55721;DHT22;41626;53.098;6.168;2022-12-18T16:35:20;-1.20;99.90
55721;DHT22;41626;53.098;6.168;2022-12-18T16:37:46;-1.20;99.90
55721;DHT22;41626;53.098;6.168;2022-12-18T16:40:14;-1.10;99.90
55721;DHT22;41626;53.098;6.168;2022-12-18T16:42:41;-1.20;99.90
55721;DHT22;41626;53.098;6.168;2022-12-18T16:45:09;-1.20;99.90
55721;DHT22;41626;53.098;6.168;2022-12-18T16:47:36;-1.10;99.90
55721;DHT22;41626;53.098;6.168;2022-12-18T16:50:02;-1.10;99.90
55721;DHT22;41626;53.098;6.168;2022-12-18T16:52:27;-1.20;99.90
55721;DHT22;41626;53.098;6.168;2022-12-18T16:54:54;-1.20;99.90
55721;DHT22;41626;53.098;6.168;2022-12-18T16:57:21;-1.00;99.90
55721;DHT22;41626;53.098;6.168;2022-12-18T16:59:47;-1.10;99.90
55721;DHT22;41626;53.098;6.168;2022-12-18T17:04:40;-1.00;99.90
55721;DHT22;41626;53.098;6.168;2022-12-18T17:07:06;-1.10;99.90
55721;DHT22;41626;53.098;6.168;2022-12-18T17:09:32;-1.00;99.90
55721;DHT22;41626;53.098;6.168;2022-12-18T17:11:58;-1.70;99.90
55721;DHT22;41626;53.098;6.168;2022-12-18T17:14:24;-1.10;99.90
55721;DHT22;41626;53.098;6.168;2022-12-18T17:16:54;-1.00;99.90
55721;DHT22;41626;53.098;6.168;2022-12-18T17:19:22;-1.00;99.90
55721;DHT22;41626;53.098;6.168;2022-12-18T17:21:49;-1.00;99.90
55721;DHT22;41626;53.098;6.168;2022-12-18T17:24:15;-1.00;99.90
55721;DHT22;41626;53.098;6.168;2022-12-18T17:26:41;-1.00;99.90
55721;DHT22;41626;53.098;6.168;2022-12-18T17:29:08;-0.90;99.90
55721;DHT22;41626;53.098;6.168;2022-12-18T17:31:34;-1.00;99.90
55721;DHT22;41626;53.098;6.168;2022-12-18T17:34:01;-0.90;99.90
55721;DHT22;41626;53.098;6.168;2022-12-18T17:36:27;-0.90;99.90
55721;DHT22;41626;53.098;6.168;2022-12-18T17:38:55;-0.90;99.90
55721;DHT22;41626;53.098;6.168;2022-12-18T17:41:22;-0.90;99.90
55721;DHT22;41626;53.098;6.168;2022-12-18T17:43:56;-0.90;99.90
55721;DHT22;41626;53.098;6.168;2022-12-18T17:46:24;-0.90;99.90
55721;DHT22;41626;53.098;6.168;2022-12-18T17:48:51;-0.80;99.90
55721;DHT22;41626;53.098;6.168;2022-12-18T17:51:17;-0.80;99.90
55721;DHT22;41626;53.098;6.168;2022-12-18T17:53:43;-0.80;99.90
55721;DHT22;41626;53.098;6.168;2022-12-18T17:56:12;-0.80;99.90
55721;DHT22;41626;53.098;6.168;2022-12-18T17:58:38;-0.80;99.90
55721;DHT22;41626;53.098;6.168;2022-12-18T18:01:05;-0.80;99.90